createdAt,value
2018-10-21T00:00:17.787Z,19.60
2018-10-21T00:02:47.944Z,19.13
2018-10-21T00:05:17.094Z,19.03
2018-10-21T00:07:46.138Z,19.40
2018-10-21T00:10:15.177Z,20.80
2018-10-21T00:12:44.154Z,20.53
2018-10-21T00:15:13.317Z,20.47
2018-10-21T00:17:42.226Z,20.57
2018-10-21T00:20:11.245Z,19.77
2018-10-21T00:22:40.306Z,22.77
2018-10-21T00:25:09.379Z,21.67
2018-10-21T00:27:38.526Z,20.63
2018-10-21T00:30:07.793Z,21.57
2018-10-21T00:32:42.142Z,22.00
2018-10-21T00:35:11.158Z,23.90
2018-10-21T00:37:40.317Z,20.70
2018-10-21T00:40:09.382Z,21.67
2018-10-21T00:42:38.567Z,23.53
2018-10-21T00:45:08.225Z,22.40
2018-10-21T00:47:37.306Z,23.33
2018-10-21T00:50:07.185Z,20.70
2018-10-21T00:52:36.231Z,23.53
2018-10-21T00:55:06.234Z,21.47
2018-10-21T00:57:35.248Z,22.23
2018-10-21T01:00:05.141Z,22.27
2018-10-21T01:02:34.213Z,20.93
2018-10-21T01:05:03.252Z,20.17
2018-10-21T01:07:32.327Z,20.07
2018-10-21T01:10:01.443Z,19.83
2018-10-21T01:12:30.458Z,19.13
2018-10-21T01:14:59.432Z,19.97
2018-10-21T01:17:28.451Z,19.90
2018-10-21T01:19:57.567Z,19.57
2018-10-21T01:22:26.659Z,19.50
2018-10-21T01:24:55.722Z,18.67
2018-10-21T01:27:24.720Z,17.60
2018-10-21T01:29:53.727Z,18.67
2018-10-21T01:32:22.756Z,17.67
2018-10-21T01:34:51.879Z,18.20
2018-10-21T01:37:20.931Z,18.80
2018-10-21T01:40:54.710Z,18.93
2018-10-21T01:43:24.932Z,18.70
2018-10-21T01:45:53.926Z,18.60
2018-10-21T01:48:23.946Z,19.83
2018-10-21T01:50:52.989Z,19.27
2018-10-21T01:53:22.474Z,21.07
2018-10-21T01:55:51.509Z,19.57
2018-10-21T01:58:20.634Z,20.53
2018-10-21T02:00:49.650Z,19.33
2018-10-21T02:03:18.781Z,20.50
2018-10-21T02:05:48.093Z,20.83
2018-10-21T02:08:17.141Z,20.70
2018-10-21T02:10:46.290Z,20.43
2018-10-21T02:13:15.262Z,21.43
2018-10-21T02:15:44.378Z,21.93
2018-10-21T02:18:13.366Z,19.20
2018-10-21T02:20:42.338Z,20.13
2018-10-21T02:23:11.403Z,18.97
2018-10-21T02:25:40.422Z,18.27
2018-10-21T02:28:09.465Z,18.63
2018-10-21T02:30:38.419Z,19.23
2018-10-21T02:33:07.506Z,24.93
2018-10-21T02:35:36.477Z,18.93
2018-10-21T02:38:05.767Z,18.83
2018-10-21T02:41:44.650Z,19.73
2018-10-21T02:44:15.954Z,17.63
2018-10-21T02:46:45.631Z,18.83
2018-10-21T02:49:15.370Z,19.43
2018-10-21T02:51:48.614Z,18.03
2018-10-21T02:54:22.128Z,18.63
2018-10-21T02:56:51.246Z,18.93
2018-10-21T02:59:20.438Z,18.33
2018-10-21T03:01:49.533Z,20.40
2018-10-21T03:04:18.931Z,18.70
2018-10-21T03:06:48.145Z,18.17
2018-10-21T03:09:17.199Z,19.33
2018-10-21T03:11:46.186Z,18.53
2018-10-21T03:14:15.179Z,19.20
2018-10-21T03:16:44.194Z,18.97
2018-10-21T03:19:13.214Z,19.47
2018-10-21T03:21:42.172Z,21.37
2018-10-21T03:24:11.234Z,17.90
2018-10-21T03:26:40.317Z,17.87
2018-10-21T03:29:09.380Z,19.77
2018-10-21T03:31:38.461Z,17.20
2018-10-21T03:34:07.579Z,20.17
2018-10-21T03:36:36.550Z,18.23
2018-10-21T03:39:07.583Z,18.37
2018-10-21T03:41:36.747Z,19.40
2018-10-21T03:44:05.792Z,20.77
2018-10-21T03:46:34.767Z,19.60
2018-10-21T03:49:03.891Z,19.77
2018-10-21T03:51:32.957Z,18.23
2018-10-21T03:54:02.065Z,19.57
2018-10-21T03:56:31.053Z,20.13
2018-10-21T03:59:00.078Z,18.73
2018-10-21T04:01:29.171Z,19.90
2018-10-21T04:03:58.173Z,20.00
2018-10-21T04:06:27.164Z,19.67
2018-10-21T04:08:56.183Z,19.33
2018-10-21T04:11:25.207Z,18.30
2018-10-21T04:13:54.267Z,19.17
2018-10-21T04:16:23.405Z,20.23
2018-10-21T04:18:52.533Z,19.20
2018-10-21T04:21:21.540Z,22.37
2018-10-21T04:23:50.570Z,19.97
2018-10-21T04:26:20.210Z,19.77
2018-10-21T04:28:49.222Z,19.97
2018-10-21T04:31:18.247Z,21.57
2018-10-21T04:33:47.362Z,19.57
2018-10-21T04:36:20.857Z,18.83
2018-10-21T04:40:01.110Z,18.67
2018-10-21T04:42:30.317Z,20.10
2018-10-21T04:44:59.722Z,21.93
2018-10-21T04:47:29.126Z,18.50
2018-10-21T04:49:58.117Z,18.50
2018-10-21T04:52:27.883Z,18.67
2018-10-21T04:55:01.167Z,19.33
2018-10-21T04:57:30.171Z,18.57
2018-10-21T04:59:59.266Z,19.10
2018-10-21T05:02:29.171Z,20.20
2018-10-21T05:04:58.138Z,18.80
2018-10-21T05:07:27.171Z,19.17
2018-10-21T05:09:56.183Z,18.57
2018-10-21T05:12:25.213Z,18.87
2018-10-21T05:17:13.469Z,19.43
2018-10-21T05:19:42.554Z,20.17
2018-10-21T05:22:11.621Z,17.83
2018-10-21T05:24:40.847Z,17.83
2018-10-21T05:27:09.873Z,20.07
2018-10-21T05:29:38.842Z,20.00
2018-10-21T05:32:07.933Z,19.90
2018-10-21T05:34:36.923Z,19.03
2018-10-21T05:37:06.266Z,19.47
2018-10-21T05:39:35.314Z,18.83
2018-10-21T05:42:04.339Z,19.43
2018-10-21T05:44:33.406Z,19.17
2018-10-21T05:47:02.496Z,18.60
2018-10-21T05:49:31.509Z,19.87
2018-10-21T05:52:00.572Z,20.07
2018-10-21T05:54:29.579Z,19.70
2018-10-21T05:56:58.599Z,18.37
2018-10-21T05:59:27.600Z,19.43
2018-10-21T06:01:56.724Z,20.33
2018-10-21T06:04:25.713Z,19.13
2018-10-21T06:06:54.841Z,20.00
2018-10-21T06:09:23.819Z,19.13
2018-10-21T06:11:52.859Z,18.87
2018-10-21T06:14:22.878Z,19.03
2018-10-21T06:16:57.235Z,18.03
2018-10-21T06:19:31.303Z,19.27
2018-10-21T06:22:00.546Z,18.80
2018-10-21T06:24:29.522Z,19.13
2018-10-21T06:26:59.780Z,19.13
2018-10-21T06:29:29.872Z,20.43
2018-10-21T06:31:58.912Z,20.50
2018-10-21T06:34:27.934Z,18.43
2018-10-21T06:36:56.950Z,20.83
2018-10-21T06:39:26.001Z,20.40
2018-10-21T06:41:55.034Z,19.60
2018-10-21T06:44:24.111Z,18.10
2018-10-21T06:46:53.152Z,17.90
2018-10-21T06:49:22.277Z,19.77
2018-10-21T06:51:51.454Z,18.40
2018-10-21T06:54:20.524Z,18.93
2018-10-21T06:56:50.030Z,19.17
2018-10-21T06:59:18.870Z,19.37
2018-10-21T07:01:47.863Z,19.83
2018-10-21T07:04:16.945Z,18.67
2018-10-21T07:06:45.989Z,20.40
2018-10-21T07:09:15.047Z,19.87
2018-10-21T07:11:44.134Z,20.10
2018-10-21T07:14:13.128Z,22.47
2018-10-21T07:16:42.450Z,21.27
2018-10-21T07:19:11.298Z,21.73
2018-10-21T07:21:41.754Z,20.87
2018-10-21T07:24:10.810Z,20.50
2018-10-21T07:26:39.827Z,20.13
2018-10-21T07:29:09.025Z,18.60
2018-10-21T07:31:38.044Z,18.70
2018-10-21T07:34:07.154Z,18.80
2018-10-21T07:36:36.089Z,24.53
2018-10-21T07:39:07.690Z,21.33
2018-10-21T07:41:36.701Z,20.93
2018-10-21T07:44:05.745Z,21.47
2018-10-21T07:46:34.893Z,21.53
2018-10-21T07:49:04.022Z,20.87
2018-10-21T07:51:33.090Z,22.67
2018-10-21T07:54:02.206Z,22.00
2018-10-21T07:56:31.239Z,20.70
2018-10-21T07:59:00.350Z,24.40
2018-10-21T08:01:29.536Z,22.77
2018-10-21T08:03:58.560Z,21.13
2018-10-21T08:06:38.946Z,20.03
2018-10-21T08:09:10.287Z,19.00
2018-10-21T08:11:39.348Z,19.90
2018-10-21T08:14:08.329Z,21.17
2018-10-21T08:16:37.412Z,21.07
2018-10-21T08:19:06.520Z,20.57
2018-10-21T08:21:35.550Z,20.20
2018-10-21T08:24:04.638Z,19.70
2018-10-21T08:26:33.795Z,21.63
2018-10-21T08:29:02.889Z,20.67
2018-10-21T08:31:31.879Z,19.27
2018-10-21T08:36:30.240Z,20.23
2018-10-21T08:38:59.263Z,21.17
2018-10-21T08:41:28.250Z,21.27
2018-10-21T08:43:57.297Z,19.03
2018-10-21T08:46:26.420Z,21.03
2018-10-21T08:48:55.396Z,22.80
2018-10-21T08:51:24.812Z,20.23
2018-10-21T08:53:53.809Z,25.07
2018-10-21T08:56:22.808Z,27.97
2018-10-21T08:58:51.842Z,30.80
2018-10-21T09:01:20.946Z,26.07
2018-10-21T09:03:49.990Z,27.50
2018-10-21T09:06:19.014Z,34.17
2018-10-21T09:08:48.056Z,30.63
2018-10-21T09:11:17.094Z,28.53
2018-10-21T09:13:46.151Z,29.40
2018-10-21T09:16:15.382Z,27.97
2018-10-21T09:18:44.431Z,25.20
2018-10-21T09:21:13.455Z,22.87
2018-10-21T09:23:42.599Z,21.37
2018-10-21T09:26:11.809Z,20.00
2018-10-21T09:31:15.956Z,19.80
2018-10-21T09:33:45.337Z,18.00
2018-10-21T09:36:14.462Z,18.70
2018-10-21T09:38:43.601Z,19.97
2018-10-21T09:41:12.822Z,18.57
2018-10-21T09:43:42.175Z,18.97
2018-10-21T09:46:11.736Z,18.10
2018-10-21T09:48:40.764Z,17.47
2018-10-21T09:51:09.842Z,17.17
2018-10-21T09:53:38.909Z,13.30
2018-10-21T09:56:07.949Z,12.03
2018-10-21T09:58:37.007Z,10.57
2018-10-21T10:01:12.410Z,13.33
2018-10-21T10:03:41.595Z,10.93
2018-10-21T10:06:10.823Z,12.07
2018-10-21T10:08:40.220Z,9.43
2018-10-21T10:11:10.479Z,12.07
2018-10-21T10:13:39.555Z,11.53
2018-10-21T10:16:08.700Z,11.10
2018-10-21T10:18:38.381Z,11.10
2018-10-21T10:21:07.766Z,12.23
2018-10-21T10:23:37.109Z,12.17
2018-10-21T10:26:06.087Z,14.03
2018-10-21T10:28:35.090Z,11.73
2018-10-21T10:31:04.186Z,9.40
2018-10-21T10:33:33.370Z,10.10
2018-10-21T10:36:02.592Z,10.17
2018-10-21T10:38:31.606Z,9.47
2018-10-21T10:41:00.675Z,9.43
2018-10-21T10:43:29.743Z,9.07
2018-10-21T10:45:58.872Z,10.13
2018-10-21T10:48:27.914Z,11.30
2018-10-21T10:50:56.998Z,10.23
2018-10-21T10:53:26.262Z,10.27
2018-10-21T10:55:55.339Z,9.53
2018-10-21T10:58:24.421Z,11.07
2018-10-21T11:00:53.643Z,11.73
2018-10-21T11:03:22.586Z,10.93
2018-10-21T11:05:51.658Z,11.10
2018-10-21T11:08:20.721Z,11.17
2018-10-21T11:10:49.773Z,9.73
2018-10-21T11:13:18.837Z,10.80
2018-10-21T11:15:47.881Z,10.03
2018-10-21T11:18:16.993Z,10.20
2018-10-21T11:20:46.097Z,10.13
2018-10-21T11:23:15.130Z,19.50
2018-10-21T11:25:44.332Z,12.00
2018-10-21T11:28:13.584Z,10.30
2018-10-21T11:30:42.504Z,11.00
2018-10-21T11:33:11.720Z,10.63
2018-10-21T11:35:40.900Z,9.97
2018-10-21T11:38:10.070Z,11.33
2018-10-21T11:40:39.505Z,10.33
2018-10-21T11:43:08.733Z,11.03
2018-10-21T11:45:37.834Z,10.57
2018-10-21T11:48:06.814Z,10.83
2018-10-21T11:50:36.126Z,12.70
2018-10-21T11:53:05.459Z,10.30
2018-10-21T11:55:38.188Z,10.10
2018-10-21T11:58:09.055Z,9.50
2018-10-21T12:00:38.069Z,11.20
2018-10-21T12:03:07.657Z,9.13
2018-10-21T12:05:36.685Z,9.83
2018-10-21T12:08:05.798Z,6.87
2018-10-21T12:10:34.788Z,8.47
2018-10-21T12:13:03.905Z,10.23
2018-10-21T12:15:32.996Z,11.57
2018-10-21T12:18:01.993Z,9.37
2018-10-21T12:20:31.009Z,8.73
2018-10-21T12:23:00.277Z,8.60
2018-10-21T12:25:29.149Z,7.33
2018-10-21T12:27:58.223Z,7.93
2018-10-21T12:30:27.191Z,7.93
2018-10-21T12:32:56.221Z,9.73
2018-10-21T12:35:25.255Z,9.50
2018-10-21T12:37:54.290Z,12.73
2018-10-21T12:40:23.342Z,9.20
2018-10-21T12:42:52.376Z,8.83
2018-10-21T12:45:21.379Z,7.93
2018-10-21T12:47:50.402Z,8.30
2018-10-21T12:50:19.404Z,8.13
2018-10-21T12:52:48.433Z,8.13
2018-10-21T12:55:17.495Z,8.00
2018-10-21T12:57:46.419Z,8.13
2018-10-21T13:00:15.414Z,8.43
2018-10-21T13:02:44.460Z,8.53
2018-10-21T13:05:13.502Z,7.30
2018-10-21T13:07:42.619Z,11.53
2018-10-21T13:10:11.900Z,7.60
2018-10-21T13:12:40.912Z,8.53
2018-10-21T13:15:10.282Z,8.87
2018-10-21T13:17:39.347Z,8.20
2018-10-21T13:20:08.470Z,9.37
2018-10-21T13:22:37.607Z,9.07
2018-10-21T13:25:06.674Z,8.03
2018-10-21T13:27:35.882Z,8.77
2018-10-21T13:30:05.550Z,8.57
2018-10-21T13:32:34.588Z,9.43
2018-10-21T13:35:04.857Z,9.00
2018-10-21T13:37:34.023Z,8.70
2018-10-21T13:40:03.225Z,8.80
2018-10-21T13:42:32.210Z,9.43
2018-10-21T13:45:01.198Z,9.50
2018-10-21T13:47:30.328Z,9.07
2018-10-21T13:49:59.705Z,9.13
2018-10-21T13:52:28.793Z,9.70
2018-10-21T13:54:57.951Z,9.10
2018-10-21T13:57:27.063Z,8.40
2018-10-21T13:59:56.063Z,8.63
2018-10-21T14:02:25.281Z,8.60
2018-10-21T14:04:54.344Z,8.60
2018-10-21T14:07:23.514Z,7.90
2018-10-21T14:09:52.497Z,8.93
2018-10-21T14:12:21.515Z,8.17
2018-10-21T14:14:50.656Z,8.50
2018-10-21T14:17:19.938Z,8.60
2018-10-21T14:19:49.033Z,9.67
2018-10-21T14:22:18.157Z,8.57
2018-10-21T14:24:47.313Z,8.90
2018-10-21T14:27:16.403Z,9.10
2018-10-21T14:29:45.478Z,8.50
2018-10-21T14:32:14.636Z,8.83
2018-10-21T14:34:43.988Z,8.50
2018-10-21T14:37:13.062Z,8.80
2018-10-21T14:39:42.072Z,8.70
2018-10-21T14:42:11.254Z,10.23
2018-10-21T14:44:40.162Z,9.33
2018-10-21T14:47:09.290Z,8.60
2018-10-21T14:49:38.411Z,8.37
2018-10-21T14:52:07.573Z,8.27
2018-10-21T14:54:36.594Z,8.77
2018-10-21T14:57:05.620Z,8.67
2018-10-21T14:59:34.638Z,8.60
2018-10-21T15:02:03.734Z,8.53
2018-10-21T15:04:32.799Z,8.67
2018-10-21T15:07:02.002Z,8.77
2018-10-21T15:09:30.997Z,8.47
2018-10-21T15:12:00.062Z,8.30
2018-10-21T15:14:29.251Z,7.97
2018-10-21T15:16:58.284Z,8.13
2018-10-21T15:19:27.486Z,10.47
2018-10-21T15:21:56.522Z,9.07
2018-10-21T15:24:25.470Z,8.23
2018-10-21T15:26:54.739Z,9.53
2018-10-21T15:29:23.895Z,8.73
2018-10-21T15:31:52.899Z,8.70
2018-10-21T15:34:21.927Z,8.33
2018-10-21T15:36:50.970Z,8.40
2018-10-21T15:39:20.579Z,9.10
2018-10-21T15:41:49.667Z,9.10
2018-10-21T15:44:18.867Z,8.73
2018-10-21T15:46:47.999Z,9.03
2018-10-21T15:49:17.075Z,8.40
2018-10-21T15:51:46.244Z,8.33
2018-10-21T15:54:15.579Z,8.30
2018-10-21T15:56:45.259Z,8.63
2018-10-21T15:59:14.586Z,8.60
2018-10-21T16:01:43.683Z,8.33
2018-10-21T16:04:12.768Z,8.97
2018-10-21T16:06:41.954Z,9.97
2018-10-21T16:09:12.766Z,12.83
2018-10-21T16:11:41.983Z,18.80
2018-10-21T16:14:11.228Z,15.83
2018-10-21T16:16:40.618Z,12.23
2018-10-21T16:19:09.819Z,10.27
2018-10-21T16:21:39.134Z,9.23
2018-10-21T16:24:08.167Z,10.00
2018-10-21T16:26:37.583Z,10.57
2018-10-21T16:29:06.622Z,11.53
2018-10-21T16:31:35.699Z,9.77
2018-10-21T16:34:05.128Z,9.90
2018-10-21T16:36:34.210Z,10.37
2018-10-21T16:39:04.759Z,10.67
2018-10-21T16:41:34.402Z,11.83
2018-10-21T16:44:03.614Z,12.73
2018-10-21T16:46:32.952Z,11.53
2018-10-21T16:49:02.073Z,11.20
2018-10-21T16:51:31.225Z,11.50
2018-10-21T16:54:00.267Z,11.10
2018-10-21T16:56:29.617Z,14.13
2018-10-21T16:58:58.729Z,11.83
2018-10-21T17:01:27.895Z,13.97
2018-10-21T17:03:57.142Z,11.83
2018-10-21T17:06:26.419Z,12.17
2018-10-21T17:08:55.865Z,12.93
2018-10-21T17:11:24.997Z,15.47
2018-10-21T17:13:54.332Z,12.57
2018-10-21T17:16:23.678Z,16.47
2018-10-21T17:18:52.809Z,14.57
2018-10-21T17:21:22.297Z,11.93
2018-10-21T17:23:51.382Z,12.10
2018-10-21T17:26:21.283Z,14.37
2018-10-21T17:28:50.391Z,12.27
2018-10-21T17:31:19.562Z,12.17
2018-10-21T17:33:48.791Z,12.30
2018-10-21T17:36:17.859Z,12.33
2018-10-21T17:38:47.056Z,13.83
2018-10-21T17:41:16.351Z,12.37
2018-10-21T17:43:52.105Z,12.97
2018-10-21T17:46:21.556Z,12.77
2018-10-21T17:48:50.967Z,13.43
2018-10-21T17:51:20.255Z,13.60
2018-10-21T17:53:49.461Z,13.93
2018-10-21T17:56:18.734Z,14.53
2018-10-21T17:58:47.961Z,14.03
2018-10-21T18:01:17.076Z,15.37
2018-10-21T18:03:46.097Z,12.80
2018-10-21T18:06:15.089Z,13.60
2018-10-21T18:08:44.182Z,13.97
2018-10-21T18:11:13.457Z,14.30
2018-10-21T18:13:42.727Z,14.27
2018-10-21T18:16:11.847Z,14.60
2018-10-21T18:18:41.043Z,16.27
2018-10-21T18:21:10.237Z,15.53
2018-10-21T18:23:39.448Z,17.93
2018-10-21T18:26:08.635Z,15.53
2018-10-21T18:28:37.797Z,17.57
2018-10-21T18:31:06.920Z,15.47
2018-10-21T18:33:35.875Z,19.13
2018-10-21T18:36:05.019Z,15.93
2018-10-21T18:38:34.080Z,15.00
2018-10-21T18:41:03.305Z,14.97
2018-10-21T18:43:32.317Z,15.17
2018-10-21T18:46:01.389Z,15.63
2018-10-21T18:48:30.702Z,14.60
2018-10-21T18:50:59.679Z,15.27
2018-10-21T18:53:28.977Z,14.20
2018-10-21T18:55:58.701Z,14.00
2018-10-21T18:58:27.790Z,13.20
2018-10-21T19:00:57.502Z,14.63
2018-10-21T19:03:26.579Z,14.17
2018-10-21T19:05:55.818Z,14.73
2018-10-21T19:08:25.018Z,13.73
2018-10-21T19:10:54.060Z,13.77
2018-10-21T19:13:23.240Z,15.87
2018-10-21T19:15:52.419Z,14.93
2018-10-21T19:18:21.722Z,14.93
2018-10-21T19:20:50.866Z,14.80
2018-10-21T19:23:20.114Z,14.63
2018-10-21T19:25:49.231Z,16.07
2018-10-21T19:28:18.385Z,14.47
2018-10-21T19:30:47.422Z,16.67
2018-10-21T19:33:16.522Z,15.93
2018-10-21T19:35:45.630Z,16.90
2018-10-21T19:38:14.721Z,16.23
2018-10-21T19:40:43.748Z,14.97
2018-10-21T19:43:12.994Z,15.60
2018-10-21T19:45:41.950Z,15.20
2018-10-21T19:48:11.224Z,15.33
2018-10-21T19:50:40.394Z,16.87
2018-10-21T19:53:09.445Z,16.03
2018-10-21T19:55:38.494Z,16.03
2018-10-21T19:58:07.689Z,16.40
2018-10-21T20:00:36.817Z,16.30
2018-10-21T20:03:05.877Z,16.13
2018-10-21T20:05:35.015Z,17.00
2018-10-21T20:08:04.169Z,17.27
2018-10-21T20:10:33.233Z,16.53
2018-10-21T20:13:02.387Z,16.73
2018-10-21T20:15:31.716Z,15.73
2018-10-21T20:18:00.765Z,16.67
2018-10-21T20:20:29.866Z,15.30
2018-10-21T20:22:58.949Z,15.90
2018-10-21T20:25:28.175Z,14.87
2018-10-21T20:27:57.490Z,16.13
2018-10-21T20:30:26.508Z,15.57
2018-10-21T20:32:55.566Z,15.83
2018-10-21T20:35:24.641Z,15.77
2018-10-21T20:37:53.860Z,15.77
2018-10-21T20:40:22.838Z,15.83
2018-10-21T20:42:51.899Z,16.93
2018-10-21T20:45:20.924Z,17.80
2018-10-21T20:47:50.447Z,16.57
2018-10-21T20:50:19.557Z,16.80
2018-10-21T20:52:48.712Z,15.90
2018-10-21T20:55:17.725Z,17.60
2018-10-21T20:57:46.724Z,18.73
2018-10-21T21:00:15.782Z,18.47
2018-10-21T21:02:45.032Z,18.17
2018-10-21T21:05:14.084Z,19.13
2018-10-21T21:07:43.148Z,19.37
2018-10-21T21:10:12.455Z,19.47
2018-10-21T21:12:41.659Z,18.50
2018-10-21T21:15:11.002Z,19.73
2018-10-21T21:17:39.995Z,20.33
2018-10-21T21:20:09.751Z,22.50
2018-10-21T21:22:38.815Z,21.60
2018-10-21T21:25:08.029Z,22.03
2018-10-21T21:27:37.368Z,22.97
2018-10-21T21:30:07.161Z,21.17
2018-10-21T21:32:36.434Z,24.87
2018-10-21T21:35:06.641Z,22.80
2018-10-21T21:37:36.052Z,20.43
2018-10-21T21:40:06.581Z,19.93
2018-10-21T21:42:35.817Z,20.73
2018-10-21T21:45:05.255Z,18.90
2018-10-21T21:47:34.245Z,18.77
2018-10-21T21:50:03.355Z,18.07
2018-10-21T21:52:32.342Z,19.87
2018-10-21T21:55:01.295Z,19.00
2018-10-21T21:57:30.482Z,18.97
2018-10-21T21:59:59.524Z,19.10
2018-10-21T22:02:28.656Z,19.13
2018-10-21T22:04:57.843Z,18.97
2018-10-21T22:07:26.993Z,19.27
2018-10-21T22:09:56.096Z,21.00
2018-10-21T22:12:25.108Z,19.07
2018-10-21T22:14:54.143Z,21.43
2018-10-21T22:17:23.219Z,19.10
2018-10-21T22:19:52.319Z,19.47
2018-10-21T22:22:21.617Z,20.07
2018-10-21T22:24:50.651Z,18.93
2018-10-21T22:27:19.737Z,19.90
2018-10-21T22:29:48.944Z,20.80
2018-10-21T22:32:17.958Z,20.27
2018-10-21T22:34:46.941Z,20.10
2018-10-21T22:37:16.044Z,20.80
2018-10-21T22:39:45.080Z,20.60
2018-10-21T22:42:14.174Z,19.77
2018-10-21T22:44:43.285Z,19.60
2018-10-21T22:47:12.326Z,19.07
2018-10-21T22:49:41.327Z,20.20
2018-10-21T22:52:10.481Z,19.27
2018-10-21T22:54:39.531Z,19.00
2018-10-21T22:57:13.911Z,17.80
2018-10-21T22:59:43.017Z,16.23
2018-10-21T23:02:12.105Z,16.13
2018-10-21T23:04:41.214Z,16.63
2018-10-21T23:07:10.250Z,15.57
2018-10-21T23:09:39.353Z,15.77
2018-10-21T23:12:08.544Z,15.43
2018-10-21T23:14:38.722Z,16.50
2018-10-21T23:17:07.746Z,15.20
2018-10-21T23:19:44.523Z,16.40
2018-10-21T23:22:13.861Z,16.60
2018-10-21T23:24:42.785Z,15.90
2018-10-21T23:27:12.436Z,15.60
2018-10-21T23:29:42.390Z,16.07
2018-10-21T23:32:11.481Z,15.20
2018-10-21T23:34:40.469Z,16.43
2018-10-21T23:37:09.500Z,15.30
2018-10-21T23:39:38.563Z,15.87
2018-10-21T23:42:07.758Z,16.00
2018-10-21T23:44:36.781Z,16.10
2018-10-21T23:47:05.966Z,17.03
2018-10-21T23:49:41.569Z,16.47
2018-10-21T23:52:10.633Z,16.43
2018-10-21T23:54:39.726Z,16.97
2018-10-21T23:57:08.711Z,15.50
2018-10-21T23:59:37.809Z,18.07
